Amherst, Ohio
Current Conditions -  °F | °C
As of 10:53 PM on Thursday 27 Nov 2014 (Local Time) from KLPR Reporting Station
Light Snow Light Snow  
Wind Chill: 20°   Ceiling: 1300
Heat Index: 28°   Visibility: 1.5mi
Dew Point: 26°   Wind: 8mph
Humidity: 92%   Direction: 310°NW
Pressure: 30.27"   Gusts: NA
Location:  41.41°N, 82.24°W
Report Text: KLPR 280353Z AUTO 31007KT 1 1/2SM -SN BR OVC013 M02/M03 A3027 RMK AO2 SLP258 P0007 T10221033 TSNO
Loading
Personal Weather Stations






























Interactive Weather Map New forecast layout! Learn more

10-Day Weather Forecast

Advertisements
Track Severe Weather on mobile